sensor_id;sensor_type;location;lat;lon;timestamp;P1;durP1;ratioP1;P2;durP2;ratioP2
14342;SDS011;7255;53.596;9.960;2023-03-01T00:01:26;11.30;;;8.10;;
14342;SDS011;7255;53.596;9.960;2023-03-01T00:03:54;11.73;;;7.77;;
14342;SDS011;7255;53.596;9.960;2023-03-01T00:06:21;10.23;;;7.13;;
14342;SDS011;7255;53.596;9.960;2023-03-01T00:08:49;10.03;;;7.10;;
14342;SDS011;7255;53.596;9.960;2023-03-01T00:11:16;10.17;;;7.63;;
14342;SDS011;7255;53.596;9.960;2023-03-01T00:13:44;9.77;;;7.33;;
14342;SDS011;7255;53.596;9.960;2023-03-01T00:16:13;12.50;;;8.20;;
14342;SDS011;7255;53.596;9.960;2023-03-01T00:18:40;9.97;;;7.90;;
14342;SDS011;7255;53.596;9.960;2023-03-01T00:21:07;7.40;;;6.63;;
14342;SDS011;7255;53.596;9.960;2023-03-01T00:23:34;9.03;;;7.97;;
14342;SDS011;7255;53.596;9.960;2023-03-01T00:26:05;12.83;;;8.50;;
14342;SDS011;7255;53.596;9.960;2023-03-01T00:28:33;10.23;;;7.70;;
14342;SDS011;7255;53.596;9.960;2023-03-01T00:31:02;11.27;;;8.43;;
14342;SDS011;7255;53.596;9.960;2023-03-01T00:33:29;8.33;;;7.40;;
14342;SDS011;7255;53.596;9.960;2023-03-01T00:35:57;8.97;;;7.20;;
14342;SDS011;7255;53.596;9.960;2023-03-01T00:38:24;10.67;;;8.10;;
14342;SDS011;7255;53.596;9.960;2023-03-01T00:40:50;11.20;;;8.30;;
14342;SDS011;7255;53.596;9.960;2023-03-01T00:43:18;11.27;;;7.63;;
14342;SDS011;7255;53.596;9.960;2023-03-01T00:45:44;10.97;;;8.30;;
14342;SDS011;7255;53.596;9.960;2023-03-01T00:48:10;12.83;;;8.03;;
14342;SDS011;7255;53.596;9.960;2023-03-01T00:50:37;10.60;;;7.83;;
14342;SDS011;7255;53.596;9.960;2023-03-01T00:53:03;8.37;;;7.57;;
14342;SDS011;7255;53.596;9.960;2023-03-01T00:55:30;12.10;;;8.10;;
14342;SDS011;7255;53.596;9.960;2023-03-01T00:57:56;12.27;;;8.43;;
14342;SDS011;7255;53.596;9.960;2023-03-01T01:00:24;13.90;;;8.23;;
14342;SDS011;7255;53.596;9.960;2023-03-01T01:02:52;8.60;;;7.40;;
14342;SDS011;7255;53.596;9.960;2023-03-01T01:05:19;10.87;;;7.63;;
14342;SDS011;7255;53.596;9.960;2023-03-01T01:07:45;10.47;;;8.03;;
14342;SDS011;7255;53.596;9.960;2023-03-01T01:10:12;11.57;;;7.60;;
14342;SDS011;7255;53.596;9.960;2023-03-01T01:12:42;12.27;;;8.00;;
14342;SDS011;7255;53.596;9.960;2023-03-01T01:15:09;11.13;;;7.30;;
14342;SDS011;7255;53.596;9.960;2023-03-01T01:17:40;8.67;;;7.70;;
14342;SDS011;7255;53.596;9.960;2023-03-01T01:20:07;8.33;;;7.53;;
14342;SDS011;7255;53.596;9.960;2023-03-01T01:22:34;10.23;;;6.93;;
14342;SDS011;7255;53.596;9.960;2023-03-01T01:25:00;8.53;;;7.03;;
14342;SDS011;7255;53.596;9.960;2023-03-01T01:27:27;8.73;;;6.80;;
14342;SDS011;7255;53.596;9.960;2023-03-01T01:29:53;10.03;;;7.23;;
14342;SDS011;7255;53.596;9.960;2023-03-01T01:32:19;9.13;;;7.37;;
14342;SDS011;7255;53.596;9.960;2023-03-01T01:34:47;9.70;;;7.27;;
14342;SDS011;7255;53.596;9.960;2023-03-01T01:37:13;10.83;;;7.93;;
14342;SDS011;7255;53.596;9.960;2023-03-01T01:39:39;10.90;;;7.03;;
14342;SDS011;7255;53.596;9.960;2023-03-01T01:42:06;9.10;;;6.80;;
14342;SDS011;7255;53.596;9.960;2023-03-01T01:44:39;9.97;;;7.77;;
14342;SDS011;7255;53.596;9.960;2023-03-01T01:47:06;10.33;;;7.63;;
14342;SDS011;7255;53.596;9.960;2023-03-01T01:49:39;10.60;;;7.63;;
14342;SDS011;7255;53.596;9.960;2023-03-01T01:52:11;9.73;;;7.40;;
14342;SDS011;7255;53.596;9.960;2023-03-01T01:54:43;8.03;;;7.20;;
14342;SDS011;7255;53.596;9.960;2023-03-01T01:57:14;10.57;;;7.97;;
14342;SDS011;7255;53.596;9.960;2023-03-01T01:59:45;10.30;;;7.67;;
14342;SDS011;7255;53.596;9.960;2023-03-01T02:02:15;9.50;;;7.63;;
14342;SDS011;7255;53.596;9.960;2023-03-01T02:04:41;10.53;;;8.13;;
14342;SDS011;7255;53.596;9.960;2023-03-01T02:07:10;11.90;;;8.23;;
14342;SDS011;7255;53.596;9.960;2023-03-01T02:09:42;8.77;;;7.87;;
14342;SDS011;7255;53.596;9.960;2023-03-01T02:12:12;9.67;;;7.37;;
14342;SDS011;7255;53.596;9.960;2023-03-01T02:14:39;9.67;;;7.97;;
14342;SDS011;7255;53.596;9.960;2023-03-01T02:17:05;10.43;;;8.27;;
14342;SDS011;7255;53.596;9.960;2023-03-01T02:19:36;9.03;;;7.47;;
14342;SDS011;7255;53.596;9.960;2023-03-01T02:22:13;9.87;;;7.57;;
14342;SDS011;7255;53.596;9.960;2023-03-01T02:24:50;9.50;;;7.80;;
14342;SDS011;7255;53.596;9.960;2023-03-01T02:27:28;8.93;;;7.63;;
14342;SDS011;7255;53.596;9.960;2023-03-01T02:30:04;10.40;;;7.10;;
14342;SDS011;7255;53.596;9.960;2023-03-01T02:32:31;10.13;;;7.60;;
14342;SDS011;7255;53.596;9.960;2023-03-01T02:35:00;8.77;;;7.87;;
14342;SDS011;7255;53.596;9.960;2023-03-01T02:37:27;8.93;;;7.10;;
14342;SDS011;7255;53.596;9.960;2023-03-01T02:39:55;9.30;;;7.23;;
14342;SDS011;7255;53.596;9.960;2023-03-01T02:42:26;9.33;;;7.30;;
14342;SDS011;7255;53.596;9.960;2023-03-01T02:44:56;10.07;;;7.60;;
14342;SDS011;7255;53.596;9.960;2023-03-01T02:47:24;7.97;;;6.50;;
14342;SDS011;7255;53.596;9.960;2023-03-01T02:49:50;8.20;;;7.33;;
14342;SDS011;7255;53.596;9.960;2023-03-01T02:55:07;8.77;;;7.33;;
14342;SDS011;7255;53.596;9.960;2023-03-01T02:57:35;8.93;;;7.40;;
14342;SDS011;7255;53.596;9.960;2023-03-01T03:00:07;14.37;;;8.43;;
14342;SDS011;7255;53.596;9.960;2023-03-01T03:02:36;12.33;;;7.97;;
14342;SDS011;7255;53.596;9.960;2023-03-01T03:05:04;11.00;;;7.63;;
14342;SDS011;7255;53.596;9.960;2023-03-01T03:07:33;9.90;;;7.27;;
14342;SDS011;7255;53.596;9.960;2023-03-01T03:10:00;8.27;;;7.07;;
14342;SDS011;7255;53.596;9.960;2023-03-01T03:12:27;8.47;;;7.43;;
14342;SDS011;7255;53.596;9.960;2023-03-01T03:14:53;9.23;;;7.73;;
14342;SDS011;7255;53.596;9.960;2023-03-01T03:17:19;11.43;;;8.60;;
14342;SDS011;7255;53.596;9.960;2023-03-01T03:19:47;10.67;;;8.43;;
14342;SDS011;7255;53.596;9.960;2023-03-01T03:22:13;8.57;;;7.20;;
14342;SDS011;7255;53.596;9.960;2023-03-01T03:24:40;8.87;;;8.00;;
14342;SDS011;7255;53.596;9.960;2023-03-01T03:27:07;10.00;;;7.63;;
14342;SDS011;7255;53.596;9.960;2023-03-01T03:29:33;10.40;;;8.07;;
14342;SDS011;7255;53.596;9.960;2023-03-01T03:31:59;10.53;;;7.90;;
14342;SDS011;7255;53.596;9.960;2023-03-01T03:34:26;11.67;;;7.43;;
14342;SDS011;7255;53.596;9.960;2023-03-01T03:36:54;9.93;;;8.03;;
14342;SDS011;7255;53.596;9.960;2023-03-01T03:39:21;11.80;;;8.40;;
14342;SDS011;7255;53.596;9.960;2023-03-01T03:41:48;10.60;;;8.63;;
14342;SDS011;7255;53.596;9.960;2023-03-01T03:44:14;12.00;;;8.27;;
14342;SDS011;7255;53.596;9.960;2023-03-01T03:46:40;9.23;;;7.80;;
14342;SDS011;7255;53.596;9.960;2023-03-01T03:49:07;9.53;;;7.43;;
14342;SDS011;7255;53.596;9.960;2023-03-01T03:51:33;9.03;;;8.07;;
14342;SDS011;7255;53.596;9.960;2023-03-01T03:54:00;7.80;;;7.00;;
14342;SDS011;7255;53.596;9.960;2023-03-01T03:56:27;10.40;;;7.90;;
14342;SDS011;7255;53.596;9.960;2023-03-01T03:58:53;8.67;;;7.37;;
14342;SDS011;7255;53.596;9.960;2023-03-01T04:01:19;9.20;;;7.40;;
14342;SDS011;7255;53.596;9.960;2023-03-01T04:03:46;8.20;;;7.40;;
14342;SDS011;7255;53.596;9.960;2023-03-01T04:06:12;11.13;;;7.57;;
14342;SDS011;7255;53.596;9.960;2023-03-01T04:08:39;7.87;;;6.70;;
14342;SDS011;7255;53.596;9.960;2023-03-01T04:11:08;7.47;;;6.70;;
14342;SDS011;7255;53.596;9.960;2023-03-01T04:13:53;9.80;;;6.70;;
14342;SDS011;7255;53.596;9.960;2023-03-01T04:16:21;7.77;;;6.97;;
14342;SDS011;7255;53.596;9.960;2023-03-01T04:18:48;7.43;;;6.73;;
14342;SDS011;7255;53.596;9.960;2023-03-01T04:21:14;7.77;;;7.07;;
14342;SDS011;7255;53.596;9.960;2023-03-01T04:23:41;8.23;;;6.33;;
14342;SDS011;7255;53.596;9.960;2023-03-01T04:26:09;6.80;;;6.10;;
14342;SDS011;7255;53.596;9.960;2023-03-01T04:28:36;11.03;;;6.80;;
14342;SDS011;7255;53.596;9.960;2023-03-01T04:31:06;7.87;;;6.63;;
14342;SDS011;7255;53.596;9.960;2023-03-01T04:33:38;7.13;;;6.43;;
14342;SDS011;7255;53.596;9.960;2023-03-01T04:36:06;7.10;;;5.80;;
14342;SDS011;7255;53.596;9.960;2023-03-01T04:38:40;7.07;;;6.33;;
14342;SDS011;7255;53.596;9.960;2023-03-01T04:41:07;9.37;;;6.13;;
14342;SDS011;7255;53.596;9.960;2023-03-01T04:43:36;7.20;;;6.47;;
14342;SDS011;7255;53.596;9.960;2023-03-01T04:46:04;8.17;;;5.83;;
14342;SDS011;7255;53.596;9.960;2023-03-01T04:48:34;7.40;;;5.90;;
14342;SDS011;7255;53.596;9.960;2023-03-01T04:51:01;7.20;;;6.17;;
14342;SDS011;7255;53.596;9.960;2023-03-01T04:53:28;10.73;;;6.17;;
14342;SDS011;7255;53.596;9.960;2023-03-01T04:55:54;6.50;;;5.80;;
14342;SDS011;7255;53.596;9.960;2023-03-01T04:58:23;8.50;;;5.87;;
14342;SDS011;7255;53.596;9.960;2023-03-01T05:00:50;12.03;;;6.90;;
14342;SDS011;7255;53.596;9.960;2023-03-01T05:03:16;9.00;;;6.50;;
14342;SDS011;7255;53.596;9.960;2023-03-01T05:05:44;6.53;;;5.23;;
14342;SDS011;7255;53.596;9.960;2023-03-01T05:08:11;6.23;;;5.43;;
14342;SDS011;7255;53.596;9.960;2023-03-01T05:10:42;9.43;;;5.80;;
14342;SDS011;7255;53.596;9.960;2023-03-01T05:13:11;11.07;;;5.70;;
14342;SDS011;7255;53.596;9.960;2023-03-01T05:15:41;9.07;;;5.83;;
14342;SDS011;7255;53.596;9.960;2023-03-01T05:18:07;8.83;;;6.53;;
14342;SDS011;7255;53.596;9.960;2023-03-01T05:20:36;7.73;;;6.47;;
14342;SDS011;7255;53.596;9.960;2023-03-01T05:23:03;9.37;;;6.80;;
14342;SDS011;7255;53.596;9.960;2023-03-01T05:25:31;6.77;;;6.03;;
14342;SDS011;7255;53.596;9.960;2023-03-01T05:27:58;9.10;;;6.67;;
14342;SDS011;7255;53.596;9.960;2023-03-01T05:30:29;9.20;;;6.83;;
14342;SDS011;7255;53.596;9.960;2023-03-01T05:32:57;8.77;;;6.37;;
14342;SDS011;7255;53.596;9.960;2023-03-01T05:35:23;7.40;;;6.33;;
14342;SDS011;7255;53.596;9.960;2023-03-01T05:37:50;8.60;;;6.00;;
14342;SDS011;7255;53.596;9.960;2023-03-01T05:40:18;5.80;;;5.00;;
14342;SDS011;7255;53.596;9.960;2023-03-01T05:42:45;9.00;;;5.60;;
14342;SDS011;7255;53.596;9.960;2023-03-01T05:45:14;10.47;;;6.30;;
14342;SDS011;7255;53.596;9.960;2023-03-01T05:47:41;16.50;;;6.40;;
14342;SDS011;7255;53.596;9.960;2023-03-01T05:50:12;8.07;;;6.10;;
14342;SDS011;7255;53.596;9.960;2023-03-01T05:52:43;9.63;;;6.43;;
14342;SDS011;7255;53.596;9.960;2023-03-01T05:55:10;8.80;;;6.80;;
14342;SDS011;7255;53.596;9.960;2023-03-01T05:57:37;7.40;;;6.33;;
14342;SDS011;7255;53.596;9.960;2023-03-01T06:00:03;7.10;;;6.07;;
14342;SDS011;7255;53.596;9.960;2023-03-01T06:02:31;8.80;;;6.10;;
14342;SDS011;7255;53.596;9.960;2023-03-01T06:04:57;5.87;;;5.27;;
14342;SDS011;7255;53.596;9.960;2023-03-01T06:07:25;9.37;;;6.27;;
14342;SDS011;7255;53.596;9.960;2023-03-01T06:09:51;9.37;;;7.00;;
14342;SDS011;7255;53.596;9.960;2023-03-01T06:12:17;8.30;;;5.77;;
14342;SDS011;7255;53.596;9.960;2023-03-01T06:14:45;6.67;;;5.90;;
14342;SDS011;7255;53.596;9.960;2023-03-01T06:17:11;7.03;;;5.80;;
14342;SDS011;7255;53.596;9.960;2023-03-01T06:19:37;7.40;;;5.37;;
14342;SDS011;7255;53.596;9.960;2023-03-01T06:22:04;7.27;;;5.90;;
14342;SDS011;7255;53.596;9.960;2023-03-01T06:24:31;7.80;;;6.20;;
14342;SDS011;7255;53.596;9.960;2023-03-01T06:26:58;7.37;;;5.83;;
14342;SDS011;7255;53.596;9.960;2023-03-01T06:29:24;7.07;;;5.87;;
14342;SDS011;7255;53.596;9.960;2023-03-01T06:31:51;7.50;;;6.00;;
14342;SDS011;7255;53.596;9.960;2023-03-01T06:34:20;6.33;;;5.63;;
14342;SDS011;7255;53.596;9.960;2023-03-01T06:36:46;5.93;;;5.10;;
14342;SDS011;7255;53.596;9.960;2023-03-01T06:39:13;10.93;;;5.63;;
14342;SDS011;7255;53.596;9.960;2023-03-01T06:41:40;6.47;;;5.37;;
14342;SDS011;7255;53.596;9.960;2023-03-01T06:44:07;7.10;;;5.33;;
14342;SDS011;7255;53.596;9.960;2023-03-01T06:46:33;8.47;;;5.50;;
14342;SDS011;7255;53.596;9.960;2023-03-01T06:48:59;8.27;;;6.03;;
14342;SDS011;7255;53.596;9.960;2023-03-01T06:51:25;6.73;;;5.17;;
14342;SDS011;7255;53.596;9.960;2023-03-01T06:53:52;8.10;;;5.40;;
14342;SDS011;7255;53.596;9.960;2023-03-01T06:56:18;10.47;;;5.93;;
14342;SDS011;7255;53.596;9.960;2023-03-01T06:58:46;9.90;;;5.10;;
14342;SDS011;7255;53.596;9.960;2023-03-01T07:01:12;8.23;;;5.57;;
14342;SDS011;7255;53.596;9.960;2023-03-01T07:03:38;5.77;;;5.27;;
14342;SDS011;7255;53.596;9.960;2023-03-01T07:06:05;7.77;;;5.20;;
14342;SDS011;7255;53.596;9.960;2023-03-01T07:08:31;7.97;;;5.10;;
14342;SDS011;7255;53.596;9.960;2023-03-01T07:10:58;8.90;;;5.33;;
14342;SDS011;7255;53.596;9.960;2023-03-01T07:13:26;8.30;;;5.77;;
14342;SDS011;7255;53.596;9.960;2023-03-01T07:15:55;6.37;;;5.40;;
14342;SDS011;7255;53.596;9.960;2023-03-01T07:18:21;5.60;;;4.60;;
14342;SDS011;7255;53.596;9.960;2023-03-01T07:20:48;10.17;;;5.37;;
14342;SDS011;7255;53.596;9.960;2023-03-01T07:23:14;5.70;;;5.10;;
14342;SDS011;7255;53.596;9.960;2023-03-01T07:25:40;5.40;;;4.90;;
14342;SDS011;7255;53.596;9.960;2023-03-01T07:28:07;6.03;;;5.43;;
14342;SDS011;7255;53.596;9.960;2023-03-01T07:30:33;7.47;;;5.40;;
14342;SDS011;7255;53.596;9.960;2023-03-01T07:33:01;7.87;;;5.67;;
14342;SDS011;7255;53.596;9.960;2023-03-01T07:35:27;5.93;;;5.33;;
14342;SDS011;7255;53.596;9.960;2023-03-01T07:37:54;7.13;;;6.43;;
14342;SDS011;7255;53.596;9.960;2023-03-01T07:40:20;9.73;;;7.00;;
14342;SDS011;7255;53.596;9.960;2023-03-01T07:42:46;7.97;;;6.50;;
14342;SDS011;7255;53.596;9.960;2023-03-01T07:45:12;7.00;;;6.30;;
14342;SDS011;7255;53.596;9.960;2023-03-01T07:47:39;8.23;;;6.47;;
14342;SDS011;7255;53.596;9.960;2023-03-01T07:50:07;8.50;;;7.30;;
14342;SDS011;7255;53.596;9.960;2023-03-01T07:52:35;8.57;;;5.73;;
14342;SDS011;7255;53.596;9.960;2023-03-01T07:55:01;7.07;;;5.73;;
14342;SDS011;7255;53.596;9.960;2023-03-01T07:57:27;11.60;;;8.30;;
14342;SDS011;7255;53.596;9.960;2023-03-01T07:59:53;12.30;;;9.00;;
14342;SDS011;7255;53.596;9.960;2023-03-01T08:02:20;13.13;;;9.53;;
14342;SDS011;7255;53.596;9.960;2023-03-01T08:04:46;14.77;;;10.47;;
14342;SDS011;7255;53.596;9.960;2023-03-01T08:07:14;11.83;;;10.60;;
14342;SDS011;7255;53.596;9.960;2023-03-01T08:09:40;14.67;;;11.23;;
14342;SDS011;7255;53.596;9.960;2023-03-01T08:12:06;15.57;;;10.37;;
14342;SDS011;7255;53.596;9.960;2023-03-01T08:14:33;13.80;;;10.60;;
14342;SDS011;7255;53.596;9.960;2023-03-01T08:16:59;12.73;;;10.50;;
14342;SDS011;7255;53.596;9.960;2023-03-01T08:19:27;14.30;;;10.67;;
14342;SDS011;7255;53.596;9.960;2023-03-01T08:21:54;13.07;;;11.47;;
14342;SDS011;7255;53.596;9.960;2023-03-01T08:24:24;14.63;;;11.10;;
14342;SDS011;7255;53.596;9.960;2023-03-01T08:26:50;15.00;;;11.30;;
14342;SDS011;7255;53.596;9.960;2023-03-01T08:29:17;14.00;;;11.53;;
14342;SDS011;7255;53.596;9.960;2023-03-01T08:31:43;12.73;;;11.07;;
14342;SDS011;7255;53.596;9.960;2023-03-01T08:34:10;14.17;;;12.27;;
14342;SDS011;7255;53.596;9.960;2023-03-01T08:36:38;15.43;;;11.70;;
14342;SDS011;7255;53.596;9.960;2023-03-01T08:39:06;15.80;;;12.30;;
14342;SDS011;7255;53.596;9.960;2023-03-01T08:41:35;15.63;;;12.00;;
14342;SDS011;7255;53.596;9.960;2023-03-01T08:44:02;16.70;;;11.70;;
14342;SDS011;7255;53.596;9.960;2023-03-01T08:46:30;13.67;;;10.83;;
14342;SDS011;7255;53.596;9.960;2023-03-01T08:48:57;17.33;;;12.23;;
14342;SDS011;7255;53.596;9.960;2023-03-01T08:51:24;13.47;;;10.70;;
14342;SDS011;7255;53.596;9.960;2023-03-01T08:53:51;15.67;;;11.97;;
14342;SDS011;7255;53.596;9.960;2023-03-01T08:56:18;15.77;;;11.13;;
14342;SDS011;7255;53.596;9.960;2023-03-01T08:58:46;14.47;;;11.63;;
14342;SDS011;7255;53.596;9.960;2023-03-01T09:01:14;15.37;;;11.93;;
14342;SDS011;7255;53.596;9.960;2023-03-01T09:03:42;14.07;;;10.77;;
14342;SDS011;7255;53.596;9.960;2023-03-01T09:06:09;15.13;;;11.63;;
14342;SDS011;7255;53.596;9.960;2023-03-01T09:08:35;14.87;;;11.13;;
14342;SDS011;7255;53.596;9.960;2023-03-01T09:11:02;16.87;;;12.17;;
14342;SDS011;7255;53.596;9.960;2023-03-01T09:13:29;16.70;;;11.37;;
14342;SDS011;7255;53.596;9.960;2023-03-01T09:15:58;17.40;;;11.90;;
14342;SDS011;7255;53.596;9.960;2023-03-01T09:18:25;14.80;;;11.10;;
14342;SDS011;7255;53.596;9.960;2023-03-01T09:20:51;15.67;;;11.93;;
14342;SDS011;7255;53.596;9.960;2023-03-01T09:23:19;17.77;;;12.33;;
14342;SDS011;7255;53.596;9.960;2023-03-01T09:25:46;13.77;;;12.10;;
14342;SDS011;7255;53.596;9.960;2023-03-01T09:28:12;17.43;;;11.50;;
14342;SDS011;7255;53.596;9.960;2023-03-01T09:30:38;14.10;;;11.40;;
14342;SDS011;7255;53.596;9.960;2023-03-01T09:33:06;14.20;;;11.50;;
14342;SDS011;7255;53.596;9.960;2023-03-01T09:35:32;13.73;;;11.77;;
14342;SDS011;7255;53.596;9.960;2023-03-01T09:37:58;12.60;;;10.43;;
14342;SDS011;7255;53.596;9.960;2023-03-01T09:40:28;13.80;;;11.67;;
14342;SDS011;7255;53.596;9.960;2023-03-01T09:42:59;15.83;;;11.70;;
14342;SDS011;7255;53.596;9.960;2023-03-01T09:45:38;12.80;;;10.80;;
14342;SDS011;7255;53.596;9.960;2023-03-01T09:48:12;11.93;;;10.63;;
14342;SDS011;7255;53.596;9.960;2023-03-01T09:50:43;15.80;;;10.57;;
14342;SDS011;7255;53.596;9.960;2023-03-01T09:53:13;14.23;;;11.67;;
14342;SDS011;7255;53.596;9.960;2023-03-01T09:55:42;13.10;;;10.77;;
14342;SDS011;7255;53.596;9.960;2023-03-01T09:58:28;16.50;;;10.73;;
14342;SDS011;7255;53.596;9.960;2023-03-01T10:01:02;15.33;;;11.03;;
14342;SDS011;7255;53.596;9.960;2023-03-01T10:03:39;13.33;;;10.50;;
14342;SDS011;7255;53.596;9.960;2023-03-01T10:06:11;15.03;;;11.43;;
14342;SDS011;7255;53.596;9.960;2023-03-01T10:08:42;14.80;;;12.20;;
14342;SDS011;7255;53.596;9.960;2023-03-01T10:11:17;15.47;;;12.27;;
14342;SDS011;7255;53.596;9.960;2023-03-01T10:13:48;17.27;;;12.67;;
14342;SDS011;7255;53.596;9.960;2023-03-01T10:16:21;18.17;;;12.03;;
14342;SDS011;7255;53.596;9.960;2023-03-01T10:18:55;18.57;;;11.90;;
14342;SDS011;7255;53.596;9.960;2023-03-01T10:21:26;15.10;;;11.73;;
14342;SDS011;7255;53.596;9.960;2023-03-01T10:24:05;15.57;;;11.27;;
14342;SDS011;7255;53.596;9.960;2023-03-01T10:26:39;15.57;;;11.03;;
14342;SDS011;7255;53.596;9.960;2023-03-01T10:29:13;11.47;;;9.77;;
14342;SDS011;7255;53.596;9.960;2023-03-01T10:31:41;12.93;;;9.97;;
14342;SDS011;7255;53.596;9.960;2023-03-01T10:34:12;16.23;;;9.70;;
14342;SDS011;7255;53.596;9.960;2023-03-01T10:36:41;14.53;;;10.23;;
14342;SDS011;7255;53.596;9.960;2023-03-01T10:39:13;13.70;;;10.57;;
14342;SDS011;7255;53.596;9.960;2023-03-01T10:41:52;14.90;;;11.17;;
14342;SDS011;7255;53.596;9.960;2023-03-01T10:44:38;13.50;;;10.67;;
14342;SDS011;7255;53.596;9.960;2023-03-01T10:47:12;14.47;;;10.97;;
14342;SDS011;7255;53.596;9.960;2023-03-01T10:49:57;12.53;;;11.20;;
14342;SDS011;7255;53.596;9.960;2023-03-01T10:52:25;16.43;;;13.67;;
14342;SDS011;7255;53.596;9.960;2023-03-01T10:54:55;16.43;;;14.00;;
14342;SDS011;7255;53.596;9.960;2023-03-01T10:57:30;16.47;;;13.07;;
14342;SDS011;7255;53.596;9.960;2023-03-01T11:00:10;13.57;;;11.17;;
14342;SDS011;7255;53.596;9.960;2023-03-01T11:02:42;15.40;;;11.83;;
14342;SDS011;7255;53.596;9.960;2023-03-01T11:05:16;15.77;;;11.53;;
14342;SDS011;7255;53.596;9.960;2023-03-01T11:07:48;16.90;;;11.90;;
14342;SDS011;7255;53.596;9.960;2023-03-01T11:10:17;14.07;;;11.20;;
14342;SDS011;7255;53.596;9.960;2023-03-01T11:12:44;16.23;;;11.87;;
14342;SDS011;7255;53.596;9.960;2023-03-01T11:15:19;11.23;;;9.40;;
14342;SDS011;7255;53.596;9.960;2023-03-01T11:17:47;12.83;;;9.37;;
14342;SDS011;7255;53.596;9.960;2023-03-01T11:20:17;11.23;;;9.67;;
14342;SDS011;7255;53.596;9.960;2023-03-01T11:22:52;12.63;;;8.90;;
14342;SDS011;7255;53.596;9.960;2023-03-01T11:25:21;10.23;;;8.87;;
14342;SDS011;7255;53.596;9.960;2023-03-01T11:27:50;13.13;;;9.03;;
14342;SDS011;7255;53.596;9.960;2023-03-01T11:30:20;13.33;;;8.87;;
14342;SDS011;7255;53.596;9.960;2023-03-01T11:32:50;11.17;;;9.10;;
14342;SDS011;7255;53.596;9.960;2023-03-01T11:35:24;10.93;;;8.50;;
14342;SDS011;7255;53.596;9.960;2023-03-01T11:37:55;11.10;;;8.97;;
14342;SDS011;7255;53.596;9.960;2023-03-01T11:40:29;9.70;;;8.47;;
14342;SDS011;7255;53.596;9.960;2023-03-01T11:43:05;8.97;;;7.87;;
14342;SDS011;7255;53.596;9.960;2023-03-01T11:45:43;10.43;;;7.97;;
14342;SDS011;7255;53.596;9.960;2023-03-01T11:48:32;11.60;;;8.20;;
14342;SDS011;7255;53.596;9.960;2023-03-01T11:51:13;10.03;;;8.00;;
14342;SDS011;7255;53.596;9.960;2023-03-01T11:53:50;8.73;;;7.23;;
14342;SDS011;7255;53.596;9.960;2023-03-01T11:56:28;9.27;;;7.53;;
14342;SDS011;7255;53.596;9.960;2023-03-01T11:59:09;10.47;;;7.83;;
14342;SDS011;7255;53.596;9.960;2023-03-01T12:01:56;9.70;;;6.80;;
14342;SDS011;7255;53.596;9.960;2023-03-01T12:04:50;9.30;;;6.67;;
14342;SDS011;7255;53.596;9.960;2023-03-01T12:07:29;8.90;;;6.87;;
14342;SDS011;7255;53.596;9.960;2023-03-01T12:10:12;7.20;;;6.50;;
14342;SDS011;7255;53.596;9.960;2023-03-01T12:13:03;8.20;;;6.53;;
14342;SDS011;7255;53.596;9.960;2023-03-01T12:15:44;7.87;;;6.90;;
14342;SDS011;7255;53.596;9.960;2023-03-01T12:18:44;7.83;;;5.33;;
14342;SDS011;7255;53.596;9.960;2023-03-01T12:21:38;6.43;;;5.83;;
14342;SDS011;7255;53.596;9.960;2023-03-01T12:24:18;8.27;;;5.80;;
14342;SDS011;7255;53.596;9.960;2023-03-01T12:27:00;8.20;;;6.07;;
14342;SDS011;7255;53.596;9.960;2023-03-01T12:29:41;6.70;;;5.87;;
14342;SDS011;7255;53.596;9.960;2023-03-01T12:32:19;6.00;;;5.27;;
14342;SDS011;7255;53.596;9.960;2023-03-01T12:35:12;7.30;;;5.67;;
14342;SDS011;7255;53.596;9.960;2023-03-01T12:37:51;10.30;;;5.50;;
14342;SDS011;7255;53.596;9.960;2023-03-01T12:40:36;17.47;;;7.10;;
14342;SDS011;7255;53.596;9.960;2023-03-01T12:43:17;7.10;;;6.20;;
14342;SDS011;7255;53.596;9.960;2023-03-01T12:46:03;7.63;;;6.37;;
14342;SDS011;7255;53.596;9.960;2023-03-01T12:48:43;8.00;;;7.20;;
14342;SDS011;7255;53.596;9.960;2023-03-01T12:51:17;9.13;;;7.17;;
14342;SDS011;7255;53.596;9.960;2023-03-01T12:53:47;7.63;;;6.57;;
14342;SDS011;7255;53.596;9.960;2023-03-01T12:56:17;6.37;;;5.67;;
14342;SDS011;7255;53.596;9.960;2023-03-01T12:58:50;5.40;;;4.80;;
14342;SDS011;7255;53.596;9.960;2023-03-01T13:04:14;6.73;;;5.60;;
14342;SDS011;7255;53.596;9.960;2023-03-01T13:06:47;6.20;;;5.57;;
14342;SDS011;7255;53.596;9.960;2023-03-01T13:09:22;7.78;;;6.00;;
14342;SDS011;7255;53.596;9.960;2023-03-01T13:11:56;5.95;;;5.22;;
14342;SDS011;7255;53.596;9.960;2023-03-01T13:20:12;8.83;;;6.90;;
14342;SDS011;7255;53.596;9.960;2023-03-01T13:22:40;8.23;;;7.37;;
14342;SDS011;7255;53.596;9.960;2023-03-01T13:25:16;7.00;;;5.97;;
14342;SDS011;7255;53.596;9.960;2023-03-01T13:27:45;8.83;;;7.10;;
14342;SDS011;7255;53.596;9.960;2023-03-01T13:36:01;8.80;;;6.53;;
14342;SDS011;7255;53.596;9.960;2023-03-01T13:38:38;8.30;;;7.03;;
14342;SDS011;7255;53.596;9.960;2023-03-01T13:41:12;9.83;;;7.10;;
14342;SDS011;7255;53.596;9.960;2023-03-01T13:43:41;6.57;;;5.63;;
14342;SDS011;7255;53.596;9.960;2023-03-01T13:46:10;6.60;;;6.00;;
14342;SDS011;7255;53.596;9.960;2023-03-01T13:48:41;7.15;;;6.32;;
14342;SDS011;7255;53.596;9.960;2023-03-01T13:51:10;8.17;;;6.07;;
14342;SDS011;7255;53.596;9.960;2023-03-01T13:53:39;7.37;;;6.03;;
14342;SDS011;7255;53.596;9.960;2023-03-01T13:56:09;6.17;;;5.57;;
14342;SDS011;7255;53.596;9.960;2023-03-01T13:58:48;8.37;;;5.30;;
14342;SDS011;7255;53.596;9.960;2023-03-01T14:01:26;5.62;;;5.03;;
14342;SDS011;7255;53.596;9.960;2023-03-01T14:03:54;6.77;;;5.70;;
14342;SDS011;7255;53.596;9.960;2023-03-01T14:06:24;6.40;;;5.70;;
14342;SDS011;7255;53.596;9.960;2023-03-01T14:09:02;6.00;;;5.40;;
14342;SDS011;7255;53.596;9.960;2023-03-01T14:11:35;8.83;;;5.73;;
14342;SDS011;7255;53.596;9.960;2023-03-01T14:14:21;6.40;;;5.40;;
14342;SDS011;7255;53.596;9.960;2023-03-01T14:17:04;6.90;;;5.53;;
14342;SDS011;7255;53.596;9.960;2023-03-01T14:19:46;6.57;;;5.32;;
14342;SDS011;7255;53.596;9.960;2023-03-01T14:22:16;8.88;;;5.78;;
14342;SDS011;7255;53.596;9.960;2023-03-01T14:24:47;6.97;;;5.55;;
14342;SDS011;7255;53.596;9.960;2023-03-01T14:27:15;6.80;;;5.97;;
14342;SDS011;7255;53.596;9.960;2023-03-01T14:29:43;6.33;;;5.27;;
14342;SDS011;7255;53.596;9.960;2023-03-01T14:32:20;6.28;;;5.18;;
14342;SDS011;7255;53.596;9.960;2023-03-01T14:34:50;6.72;;;5.75;;
14342;SDS011;7255;53.596;9.960;2023-03-01T14:37:21;8.07;;;5.77;;
14342;SDS011;7255;53.596;9.960;2023-03-01T14:39:50;6.07;;;5.40;;
14342;SDS011;7255;53.596;9.960;2023-03-01T14:42:17;9.63;;;6.33;;
14342;SDS011;7255;53.596;9.960;2023-03-01T14:44:47;7.53;;;5.82;;
14342;SDS011;7255;53.596;9.960;2023-03-01T14:47:19;6.43;;;5.80;;
14342;SDS011;7255;53.596;9.960;2023-03-01T14:49:53;8.47;;;6.00;;
14342;SDS011;7255;53.596;9.960;2023-03-01T14:52:25;8.33;;;6.17;;
14342;SDS011;7255;53.596;9.960;2023-03-01T14:55:00;7.93;;;5.95;;
14342;SDS011;7255;53.596;9.960;2023-03-01T14:57:29;7.67;;;5.63;;
14342;SDS011;7255;53.596;9.960;2023-03-01T14:59:57;6.33;;;5.67;;
14342;SDS011;7255;53.596;9.960;2023-03-01T15:02:29;7.03;;;5.97;;
14342;SDS011;7255;53.596;9.960;2023-03-01T15:04:58;6.87;;;5.60;;
14342;SDS011;7255;53.596;9.960;2023-03-01T15:07:30;7.23;;;5.83;;
14342;SDS011;7255;53.596;9.960;2023-03-01T15:09:59;6.90;;;6.03;;
14342;SDS011;7255;53.596;9.960;2023-03-01T15:12:36;7.60;;;6.17;;
14342;SDS011;7255;53.596;9.960;2023-03-01T15:18:00;7.90;;;6.45;;
14342;SDS011;7255;53.596;9.960;2023-03-01T15:20:29;7.25;;;5.93;;
14342;SDS011;7255;53.596;9.960;2023-03-01T15:23:00;7.20;;;6.43;;
14342;SDS011;7255;53.596;9.960;2023-03-01T15:25:27;7.57;;;6.27;;
14342;SDS011;7255;53.596;9.960;2023-03-01T15:27:55;7.50;;;6.63;;
14342;SDS011;7255;53.596;9.960;2023-03-01T15:30:25;7.77;;;6.83;;